createdAt,value
2023-05-04T00:00:51.963Z,0.52
2023-05-04T00:01:52.030Z,0.53
2023-05-04T00:02:52.163Z,0.54
2023-05-04T00:03:52.313Z,0.55
2023-05-04T00:04:52.262Z,0.53
2023-05-04T00:05:52.134Z,0.52
2023-05-04T00:06:52.183Z,0.51
2023-05-04T00:07:52.195Z,0.51
2023-05-04T00:08:52.246Z,0.52
2023-05-04T00:09:52.310Z,0.52
2023-05-04T00:10:52.307Z,0.53
2023-05-04T00:11:52.358Z,0.53
2023-05-04T00:12:52.451Z,0.51
2023-05-04T00:13:52.412Z,0.52
2023-05-04T00:14:52.456Z,0.51
2023-05-04T00:15:52.531Z,0.51
2023-05-04T00:16:52.541Z,0.54
2023-05-04T00:17:52.558Z,0.52
2023-05-04T00:18:52.589Z,0.52
2023-05-04T00:19:52.589Z,0.53
2023-05-04T00:20:52.638Z,0.54
2023-05-04T00:21:52.685Z,0.54
2023-05-04T00:22:52.690Z,0.56
2023-05-04T00:23:52.700Z,0.55
2023-05-04T00:24:52.726Z,0.55
2023-05-04T00:25:52.769Z,0.55
2023-05-04T00:26:52.791Z,0.56
2023-05-04T00:27:52.820Z,0.58
2023-05-04T00:28:52.863Z,0.58
2023-05-04T00:29:52.881Z,0.57
2023-05-04T00:30:52.902Z,0.57
2023-05-04T00:31:53.010Z,0.58
2023-05-04T00:32:53.043Z,0.57
2023-05-04T00:33:53.009Z,0.59
2023-05-04T00:34:53.115Z,0.60
2023-05-04T00:35:53.158Z,0.62
2023-05-04T00:36:53.246Z,0.60
2023-05-04T00:37:53.292Z,0.63
2023-05-04T00:38:53.335Z,0.61
2023-05-04T00:39:53.410Z,0.62
2023-05-04T00:40:53.439Z,0.62
2023-05-04T00:41:53.550Z,0.63
2023-05-04T00:42:53.599Z,0.64
2023-05-04T00:43:53.665Z,0.66
2023-05-04T00:44:53.745Z,0.66
2023-05-04T00:45:53.761Z,0.64
2023-05-04T00:46:53.931Z,0.67
2023-05-04T00:47:53.971Z,0.66
2023-05-04T00:48:53.983Z,0.65
2023-05-04T00:49:54.108Z,0.66
2023-05-04T00:50:54.120Z,0.65
2023-05-04T00:51:54.186Z,0.66
2023-05-04T00:52:54.234Z,0.66
2023-05-04T00:53:54.277Z,0.65
2023-05-04T00:54:54.381Z,0.66
2023-05-04T00:55:54.410Z,0.64
2023-05-04T00:56:54.553Z,0.65
2023-05-04T00:57:54.550Z,0.64
2023-05-04T00:58:54.692Z,0.65
2023-05-04T00:59:54.682Z,0.67
2023-05-04T01:00:54.807Z,0.65
2023-05-04T01:01:54.831Z,0.62
2023-05-04T01:02:54.967Z,0.62
2023-05-04T01:03:55.014Z,0.60
2023-05-04T01:04:54.977Z,0.62
2023-05-04T01:05:55.082Z,0.59
2023-05-04T01:06:55.171Z,0.60
2023-05-04T01:07:55.230Z,0.57
2023-05-04T01:08:55.316Z,0.56
2023-05-04T01:09:55.362Z,0.54
2023-05-04T01:10:55.419Z,0.56
2023-05-04T01:11:55.547Z,0.55
2023-05-04T01:12:55.635Z,0.54
2023-05-04T01:13:55.655Z,0.55
2023-05-04T01:14:55.727Z,0.56
2023-05-04T01:15:55.805Z,0.56
2023-05-04T01:16:55.981Z,0.56
2023-05-04T01:17:55.980Z,0.55
2023-05-04T01:18:56.027Z,0.53
2023-05-04T01:19:56.102Z,0.53
2023-05-04T01:20:56.173Z,0.54
2023-05-04T01:21:56.267Z,0.52
2023-05-04T01:22:56.329Z,0.52
2023-05-04T01:23:56.531Z,0.53
2023-05-04T01:24:56.486Z,0.52
2023-05-04T01:25:56.519Z,0.52
2023-05-04T01:26:56.649Z,0.51
2023-05-04T01:27:56.661Z,0.53
2023-05-04T01:28:56.780Z,0.52
2023-05-04T01:29:56.845Z,0.53
2023-05-04T01:30:56.968Z,0.53
2023-05-04T01:31:57.015Z,0.52
2023-05-04T01:32:57.075Z,0.52
2023-05-04T01:33:57.167Z,0.53
2023-05-04T01:34:57.239Z,0.52
2023-05-04T01:35:57.311Z,0.52
2023-05-04T01:36:57.400Z,0.53
2023-05-04T01:37:57.498Z,0.53
2023-05-04T01:38:57.561Z,0.52
2023-05-04T01:39:57.618Z,0.51
2023-05-04T01:40:57.717Z,0.51
2023-05-04T01:41:57.780Z,0.52
2023-05-04T01:42:57.864Z,0.52
2023-05-04T01:43:57.932Z,0.51
2023-05-04T01:44:58.012Z,0.50
2023-05-04T01:45:58.138Z,0.52
2023-05-04T01:46:58.186Z,0.54
2023-05-04T01:47:58.307Z,0.53
2023-05-04T01:48:58.338Z,0.54
2023-05-04T01:49:58.430Z,0.54
2023-05-04T01:50:58.489Z,0.53
2023-05-04T01:51:58.601Z,0.52
2023-05-04T01:52:58.706Z,0.51
2023-05-04T01:53:58.771Z,0.53
2023-05-04T01:54:58.833Z,0.53
2023-05-04T01:55:58.935Z,0.52
2023-05-04T01:56:59.035Z,0.52
2023-05-04T01:57:59.115Z,0.52
2023-05-04T01:58:59.195Z,0.52
2023-05-04T01:59:59.274Z,0.53
2023-05-04T02:00:59.376Z,0.53
2023-05-04T02:01:59.488Z,0.54
2023-05-04T02:02:59.603Z,0.53
2023-05-04T02:03:59.856Z,0.55
2023-05-04T02:04:59.704Z,0.55
2023-05-04T02:05:59.787Z,0.56
2023-05-04T02:06:59.899Z,0.56
2023-05-04T02:07:59.960Z,0.56
2023-05-04T02:09:00.134Z,0.57
2023-05-04T02:10:00.164Z,0.57
2023-05-04T02:11:00.236Z,0.57
2023-05-04T02:12:00.311Z,0.58
2023-05-04T02:13:00.442Z,0.56
2023-05-04T02:14:00.497Z,0.55
2023-05-04T02:15:00.596Z,0.56
2023-05-04T02:16:00.717Z,0.55
2023-05-04T02:17:00.766Z,0.55
2023-05-04T02:18:00.889Z,0.55
2023-05-04T02:19:00.953Z,0.55
2023-05-04T02:20:01.042Z,0.56
2023-05-04T02:21:01.157Z,0.57
2023-05-04T02:22:01.235Z,0.57
2023-05-04T02:23:01.300Z,0.57
2023-05-04T02:24:01.435Z,0.56
2023-05-04T02:25:01.485Z,0.58
2023-05-04T02:26:01.619Z,0.62
2023-05-04T02:27:01.712Z,0.62
2023-05-04T02:28:01.792Z,0.63
2023-05-04T02:29:01.887Z,0.63
2023-05-04T02:30:01.997Z,0.63
2023-05-04T02:31:02.084Z,0.63
2023-05-04T02:32:02.296Z,0.63
2023-05-04T02:33:02.388Z,0.63
2023-05-04T02:34:02.376Z,0.64
2023-05-04T02:35:02.487Z,0.66
2023-05-04T02:36:02.564Z,0.67
2023-05-04T02:37:03.061Z,0.67
2023-05-04T02:38:02.758Z,0.68
2023-05-04T02:39:02.840Z,0.67
2023-05-04T02:40:03.112Z,0.68
2023-05-04T02:41:03.028Z,0.67
2023-05-04T02:42:03.134Z,0.67
2023-05-04T02:43:03.274Z,0.67
2023-05-04T02:44:03.322Z,0.68
2023-05-04T02:45:03.457Z,0.70
2023-05-04T02:46:03.615Z,0.71
2023-05-04T02:47:03.648Z,0.72
2023-05-04T02:48:03.805Z,0.72
2023-05-04T02:49:03.834Z,0.73
2023-05-04T02:50:04.170Z,0.73
2023-05-04T02:51:04.056Z,0.75
2023-05-04T02:52:04.142Z,0.76
2023-05-04T02:53:04.260Z,0.78
2023-05-04T02:54:04.325Z,0.80
2023-05-04T02:55:04.437Z,0.79
2023-05-04T02:56:04.539Z,0.81
2023-05-04T02:57:04.651Z,0.81
2023-05-04T02:58:04.741Z,0.82
2023-05-04T02:59:04.901Z,0.83
2023-05-04T03:00:05.263Z,0.85
2023-05-04T03:01:05.068Z,0.83
2023-05-04T03:02:05.148Z,0.86
2023-05-04T03:03:05.286Z,0.86
2023-05-04T03:04:05.384Z,0.87
2023-05-04T03:05:05.419Z,0.87
2023-05-04T03:06:05.528Z,0.87
2023-05-04T03:07:05.654Z,0.88
2023-05-04T03:08:05.746Z,0.89
2023-05-04T03:09:05.866Z,0.91
2023-05-04T03:10:06.067Z,0.92
2023-05-04T03:11:06.069Z,0.94
2023-05-04T03:12:06.164Z,0.93
2023-05-04T03:13:06.351Z,0.96
2023-05-04T03:14:06.460Z,0.95
2023-05-04T03:15:06.482Z,0.95
2023-05-04T03:16:06.612Z,0.95
2023-05-04T03:17:06.740Z,0.94
2023-05-04T03:18:06.866Z,0.94
2023-05-04T03:19:06.904Z,0.95
2023-05-04T03:20:07.225Z,0.95
2023-05-04T03:21:07.115Z,0.94
2023-05-04T03:22:07.216Z,0.95
2023-05-04T03:23:07.326Z,0.96
2023-05-04T03:24:07.460Z,0.96
2023-05-04T03:25:07.550Z,0.95
2023-05-04T03:26:07.642Z,0.96
2023-05-04T03:27:07.773Z,0.96
2023-05-04T03:28:07.876Z,0.96
2023-05-04T03:29:08.002Z,0.98
2023-05-04T03:30:08.112Z,0.98
2023-05-04T03:31:08.202Z,0.99
2023-05-04T03:32:08.364Z,1.00
2023-05-04T03:33:08.434Z,0.99
2023-05-04T03:34:08.569Z,1.00
2023-05-04T03:35:08.671Z,1.01
2023-05-04T03:36:08.790Z,1.01
2023-05-04T03:37:08.916Z,1.02
2023-05-04T03:38:09.007Z,1.03
2023-05-04T03:39:09.144Z,1.03
2023-05-04T03:40:09.255Z,1.04
2023-05-04T03:41:09.338Z,1.03
2023-05-04T03:42:09.494Z,1.02
2023-05-04T03:43:10.507Z,1.01
2023-05-04T03:44:09.708Z,1.00
2023-05-04T03:45:09.799Z,1.00
2023-05-04T03:46:09.989Z,0.99
2023-05-04T03:47:10.057Z,1.00
2023-05-04T03:48:10.177Z,0.98
2023-05-04T03:49:10.264Z,0.99
2023-05-04T03:50:10.383Z,0.98
2023-05-04T03:51:10.486Z,0.97
2023-05-04T03:52:10.633Z,0.96
2023-05-04T03:53:10.702Z,0.95
2023-05-04T03:54:10.821Z,0.94
2023-05-04T03:55:10.941Z,0.94
2023-05-04T03:56:11.070Z,0.94
2023-05-04T03:57:11.227Z,0.96
2023-05-04T03:58:11.293Z,0.96
2023-05-04T03:59:11.420Z,1.00
2023-05-04T04:00:11.534Z,1.02
2023-05-04T04:01:11.638Z,1.04
2023-05-04T04:02:11.742Z,1.07
2023-05-04T04:03:12.103Z,1.08
2023-05-04T04:04:12.031Z,1.12
2023-05-04T04:05:12.108Z,1.12
2023-05-04T04:06:12.219Z,1.12
2023-05-04T04:07:12.336Z,1.13
2023-05-04T04:08:12.426Z,1.14
2023-05-04T04:09:12.530Z,1.15
2023-05-04T04:10:12.669Z,1.16
2023-05-04T04:11:12.776Z,1.14
2023-05-04T04:12:12.911Z,1.13
2023-05-04T04:13:13.142Z,1.12
2023-05-04T04:14:13.157Z,1.16
2023-05-04T04:15:13.225Z,1.14
2023-05-04T04:16:13.431Z,1.13
2023-05-04T04:17:13.472Z,1.13
2023-05-04T04:18:13.630Z,1.13
2023-05-04T04:19:13.724Z,1.14
2023-05-04T04:20:13.852Z,1.14
2023-05-04T04:21:13.975Z,1.16
2023-05-04T04:22:14.072Z,1.16
2023-05-04T04:23:14.174Z,1.17
2023-05-04T04:24:14.298Z,1.19
2023-05-04T04:25:14.390Z,1.19
2023-05-04T04:26:14.495Z,1.20
2023-05-04T04:27:14.596Z,1.21
2023-05-04T04:28:14.667Z,1.23
2023-05-04T04:29:14.774Z,1.23
2023-05-04T04:30:14.867Z,1.20
2023-05-04T04:31:14.958Z,1.20
2023-05-04T04:32:15.036Z,1.18
2023-05-04T04:33:15.259Z,1.19
2023-05-04T04:34:15.189Z,1.21
2023-05-04T04:35:15.291Z,1.20
2023-05-04T04:36:15.359Z,1.17
2023-05-04T04:37:15.457Z,1.13
2023-05-04T04:38:15.561Z,1.13
2023-05-04T04:39:15.701Z,1.12
2023-05-04T04:40:15.753Z,1.10
2023-05-04T04:41:15.865Z,1.09
2023-05-04T04:42:15.958Z,1.12
2023-05-04T04:43:16.024Z,1.14
2023-05-04T04:44:16.123Z,1.15
2023-05-04T04:45:16.238Z,1.14
2023-05-04T04:46:16.462Z,1.14
2023-05-04T04:47:16.517Z,1.14
2023-05-04T04:48:16.585Z,1.13
2023-05-04T04:49:16.649Z,1.14
2023-05-04T04:50:16.764Z,1.15
2023-05-04T04:51:16.849Z,1.16
2023-05-04T04:52:16.974Z,1.15
2023-05-04T04:53:18.032Z,1.15
2023-05-04T04:54:17.136Z,1.16
2023-05-04T04:55:17.207Z,1.16
2023-05-04T04:56:17.343Z,1.17
2023-05-04T04:57:17.445Z,1.17
2023-05-04T04:58:17.526Z,1.14
2023-05-04T04:59:17.670Z,1.15
2023-05-04T05:00:17.718Z,1.16
2023-05-04T05:01:18.063Z,1.17
2023-05-04T05:02:17.943Z,1.18
2023-05-04T05:03:18.108Z,1.18
2023-05-04T05:04:18.143Z,1.18
2023-05-04T05:05:18.232Z,1.19
2023-05-04T05:06:18.344Z,1.17
2023-05-04T05:07:18.418Z,1.18
2023-05-04T05:08:18.501Z,1.17
2023-05-04T05:09:18.611Z,1.15
2023-05-04T05:10:18.705Z,1.14
2023-05-04T05:11:18.784Z,1.16
2023-05-04T05:12:18.896Z,1.17
2023-05-04T05:13:18.985Z,1.14
2023-05-04T05:14:19.096Z,1.12
2023-05-04T05:15:19.181Z,1.09
2023-05-04T05:16:19.295Z,1.07
2023-05-04T05:17:19.340Z,1.07
2023-05-04T05:18:19.456Z,1.09
2023-05-04T05:19:19.526Z,1.07
2023-05-04T05:20:19.587Z,1.06
2023-05-04T05:21:19.660Z,1.07
2023-05-04T05:22:19.735Z,1.07
2023-05-04T05:23:19.749Z,1.06
2023-05-04T05:24:19.846Z,1.06
2023-05-04T05:25:19.926Z,1.07
2023-05-04T05:26:20.034Z,1.02
2023-05-04T05:27:20.102Z,1.04
2023-05-04T05:28:20.215Z,1.05
2023-05-04T05:29:20.320Z,1.08
2023-05-04T05:30:20.425Z,1.04
2023-05-04T05:31:20.601Z,1.07
2023-05-04T05:32:20.655Z,1.09
2023-05-04T05:33:20.753Z,1.10
2023-05-04T05:34:20.824Z,1.08
2023-05-04T05:35:20.953Z,1.03
2023-05-04T05:36:21.018Z,1.02
2023-05-04T05:37:21.064Z,1.03
2023-05-04T05:38:21.162Z,1.15
2023-05-04T05:39:21.230Z,1.25
2023-05-04T05:40:21.333Z,1.41
2023-05-04T05:41:21.488Z,1.39
2023-05-04T05:42:22.059Z,1.43
2023-05-04T05:43:21.690Z,1.51
2023-05-04T05:44:21.788Z,1.59
2023-05-04T05:45:21.933Z,1.71
2023-05-04T05:46:22.109Z,1.50
2023-05-04T05:47:22.229Z,1.44
2023-05-04T05:48:22.308Z,1.58
2023-05-04T05:49:22.422Z,1.90
2023-05-04T05:50:22.520Z,1.91
2023-05-04T05:51:22.645Z,2.00
2023-05-04T05:52:22.772Z,2.13
2023-05-04T05:53:22.871Z,2.22
2023-05-04T05:54:22.958Z,2.26
2023-05-04T05:55:23.091Z,2.18
2023-05-04T05:56:23.178Z,2.09
2023-05-04T05:57:23.551Z,2.51
2023-05-04T05:58:23.337Z,3.09
2023-05-04T05:59:23.466Z,3.28
2023-05-04T06:00:23.563Z,3.54
2023-05-04T06:01:24.214Z,4.04
2023-05-04T06:02:23.812Z,4.26
2023-05-04T06:03:23.988Z,4.34
2023-05-04T06:04:23.935Z,4.47
2023-05-04T06:05:23.948Z,4.68
2023-05-04T06:06:24.041Z,5.10
2023-05-04T06:07:24.115Z,5.20
2023-05-04T06:08:24.191Z,5.23
2023-05-04T06:09:24.269Z,5.40
2023-05-04T06:10:24.297Z,5.57
2023-05-04T06:11:24.389Z,5.65
2023-05-04T06:12:24.457Z,5.80
2023-05-04T06:13:24.473Z,6.03
2023-05-04T06:14:24.547Z,5.86
2023-05-04T06:15:24.620Z,5.81
2023-05-04T06:16:24.747Z,6.42
2023-05-04T06:17:24.750Z,6.54
2023-05-04T06:18:24.777Z,6.68
2023-05-04T06:19:24.828Z,6.94
2023-05-04T06:20:24.870Z,7.06
2023-05-04T06:21:25.017Z,7.35
2023-05-04T06:22:25.014Z,7.48
2023-05-04T06:23:25.076Z,8.26
2023-05-04T06:24:25.094Z,8.69
2023-05-04T06:25:25.155Z,8.90
2023-05-04T06:26:25.173Z,8.99
2023-05-04T06:27:25.275Z,9.22
2023-05-04T06:28:25.293Z,9.20
2023-05-04T06:29:25.351Z,9.62
2023-05-04T06:30:25.376Z,9.85
2023-05-04T06:31:25.530Z,9.86
2023-05-04T06:32:25.540Z,9.57
2023-05-04T06:33:25.581Z,10.20
2023-05-04T06:34:25.643Z,10.62
2023-05-04T06:35:25.771Z,10.44
2023-05-04T06:36:25.832Z,10.20
2023-05-04T06:37:25.915Z,10.15
2023-05-04T06:38:25.997Z,10.50
2023-05-04T06:39:26.065Z,10.53
2023-05-04T06:40:26.159Z,10.54
2023-05-04T06:41:26.196Z,10.72
2023-05-04T06:42:26.292Z,10.82
2023-05-04T06:43:26.356Z,10.93
2023-05-04T06:44:26.409Z,10.88
2023-05-04T06:45:26.532Z,11.60
2023-05-04T06:46:26.642Z,8.35
2023-05-04T06:47:26.721Z,8.25
2023-05-04T06:48:26.757Z,8.19
2023-05-04T06:49:26.826Z,8.82
2023-05-04T06:50:26.957Z,10.78
2023-05-04T06:51:27.023Z,12.21
2023-05-04T06:52:27.124Z,13.20
2023-05-04T06:53:27.204Z,12.50
2023-05-04T06:54:27.268Z,12.48
2023-05-04T06:55:27.356Z,12.91
2023-05-04T06:56:27.429Z,12.51
2023-05-04T06:57:27.510Z,13.25
2023-05-04T06:58:27.580Z,13.30
2023-05-04T06:59:27.667Z,13.52
2023-05-04T07:00:27.801Z,14.10
2023-05-04T07:01:27.896Z,14.74
2023-05-04T07:02:28.018Z,14.48
2023-05-04T07:03:28.097Z,14.46
2023-05-04T07:04:28.201Z,14.13
2023-05-04T07:05:28.266Z,14.02
2023-05-04T07:06:28.380Z,14.47
2023-05-04T07:07:28.525Z,14.24
2023-05-04T07:08:28.622Z,14.31
2023-05-04T07:09:28.721Z,14.51
2023-05-04T07:10:28.815Z,14.66
2023-05-04T07:11:28.948Z,14.62
2023-05-04T07:12:29.103Z,14.68
2023-05-04T07:13:29.149Z,14.76
2023-05-04T07:14:29.243Z,14.57
2023-05-04T07:15:29.315Z,14.82
2023-05-04T07:16:29.471Z,14.56
2023-05-04T07:17:29.524Z,14.45
2023-05-04T07:18:29.608Z,13.38
2023-05-04T07:19:29.710Z,12.95
2023-05-04T07:20:29.845Z,13.96
2023-05-04T07:21:29.967Z,13.93
2023-05-04T07:22:30.056Z,14.22
2023-05-04T07:23:30.149Z,14.22
2023-05-04T07:24:30.260Z,13.59
2023-05-04T07:25:30.370Z,13.80
2023-05-04T07:26:30.440Z,13.81
2023-05-04T07:27:30.584Z,12.69
2023-05-04T07:28:30.691Z,12.67
2023-05-04T07:29:30.757Z,12.34
2023-05-04T07:30:30.839Z,12.42
2023-05-04T07:31:31.045Z,11.44
2023-05-04T07:32:31.038Z,11.16
2023-05-04T07:33:31.146Z,11.41
2023-05-04T07:34:44.616Z,11.40
2023-05-04T07:35:32.287Z,11.42
2023-05-04T07:36:31.302Z,11.37
2023-05-04T07:37:31.589Z,10.87
2023-05-04T07:38:31.378Z,8.99
2023-05-04T07:39:31.425Z,9.93
2023-05-04T07:40:31.463Z,9.70
2023-05-04T07:41:31.477Z,7.71
2023-05-04T07:42:31.590Z,6.07
2023-05-04T07:43:31.555Z,4.96
2023-05-04T07:44:31.671Z,4.13
2023-05-04T07:45:31.705Z,2.69
2023-05-04T07:46:31.835Z,2.58
2023-05-04T07:47:32.183Z,3.54
2023-05-04T07:48:31.919Z,3.81
2023-05-04T07:49:32.027Z,3.75
2023-05-04T07:50:32.059Z,2.34
2023-05-04T07:51:32.154Z,2.74
2023-05-04T07:52:32.275Z,2.96
2023-05-04T07:53:32.352Z,3.42
2023-05-04T07:54:32.432Z,3.55
2023-05-04T07:55:32.527Z,3.78
2023-05-04T07:56:32.628Z,3.73
2023-05-04T07:57:32.683Z,3.33
2023-05-04T07:58:32.714Z,3.57
2023-05-04T07:59:32.823Z,3.43
2023-05-04T08:00:32.886Z,3.33
2023-05-04T08:01:33.026Z,3.07
2023-05-04T08:02:33.146Z,2.80
2023-05-04T08:03:33.127Z,2.61
2023-05-04T08:04:33.225Z,2.34
2023-05-04T08:05:33.310Z,2.27
2023-05-04T08:06:33.391Z,1.73
2023-05-04T08:07:33.457Z,1.68
2023-05-04T08:08:33.552Z,1.79
2023-05-04T08:09:33.587Z,1.94
2023-05-04T08:10:33.693Z,1.89
2023-05-04T08:11:33.735Z,1.93
2023-05-04T08:12:33.857Z,1.89
2023-05-04T08:13:33.894Z,1.73
2023-05-04T08:14:34.137Z,1.68
2023-05-04T08:15:34.010Z,1.61
2023-05-04T08:16:34.127Z,1.59
2023-05-04T08:17:34.216Z,1.51
2023-05-04T08:18:34.236Z,1.49
2023-05-04T08:19:34.295Z,1.54
2023-05-04T08:20:34.428Z,1.51
2023-05-04T08:21:34.454Z,1.57
2023-05-04T08:22:34.546Z,1.58
2023-05-04T08:23:34.599Z,1.59
2023-05-04T08:24:34.680Z,1.59
2023-05-04T08:25:34.770Z,1.54
2023-05-04T08:26:34.856Z,1.55
2023-05-04T08:27:34.936Z,1.52
2023-05-04T08:28:35.011Z,1.52
2023-05-04T08:29:35.097Z,1.35
2023-05-04T08:30:35.151Z,1.40
2023-05-04T08:31:35.316Z,1.29
2023-05-04T08:32:35.385Z,1.24
2023-05-04T08:33:35.401Z,1.15
2023-05-04T08:34:35.445Z,0.66
2023-05-04T08:35:35.563Z,0.75
2023-05-04T08:36:35.678Z,0.76
2023-05-04T08:37:35.723Z,0.98
2023-05-04T08:38:35.787Z,0.89
2023-05-04T08:39:35.905Z,1.19
2023-05-04T08:40:35.953Z,1.39
2023-05-04T08:41:36.041Z,1.40
2023-05-04T08:42:36.139Z,1.58
2023-05-04T08:43:36.239Z,1.92
2023-05-04T08:44:36.227Z,1.74
2023-05-04T08:45:36.333Z,1.32
2023-05-04T08:46:36.370Z,1.12
2023-05-04T08:47:36.675Z,1.39
2023-05-04T08:48:36.496Z,2.11
2023-05-04T08:49:36.604Z,2.11
2023-05-04T08:50:36.654Z,2.19
2023-05-04T08:51:36.777Z,2.23
2023-05-04T08:52:36.832Z,1.19
2023-05-04T08:53:36.851Z,1.40
2023-05-04T08:54:36.934Z,1.47
2023-05-04T08:55:37.026Z,1.73
2023-05-04T08:56:37.049Z,1.55
2023-05-04T08:57:37.171Z,1.87
2023-05-04T08:58:37.238Z,2.48
2023-05-04T08:59:37.309Z,2.56
2023-05-04T09:00:37.415Z,2.46
2023-05-04T09:01:37.440Z,2.92
2023-05-04T09:02:37.693Z,3.17
2023-05-04T09:03:37.753Z,3.48
2023-05-04T09:04:37.756Z,3.53
2023-05-04T09:05:37.739Z,3.62
2023-05-04T09:06:37.838Z,3.89
2023-05-04T09:07:37.958Z,4.09
2023-05-04T09:08:38.007Z,4.39
2023-05-04T09:09:38.121Z,3.93
2023-05-04T09:10:38.264Z,4.33
2023-05-04T09:11:38.302Z,4.32
2023-05-04T09:12:38.441Z,3.87
2023-05-04T09:13:38.441Z,3.95
2023-05-04T09:14:38.535Z,4.33
2023-05-04T09:15:38.651Z,4.68
2023-05-04T09:16:38.756Z,5.09
2023-05-04T09:17:50.946Z,5.24
2023-05-04T09:18:39.801Z,5.26
2023-05-04T09:19:38.807Z,5.32
2023-05-04T09:20:38.834Z,5.39
2023-05-04T09:21:38.881Z,5.78
2023-05-04T09:22:38.928Z,6.02
2023-05-04T09:23:38.980Z,6.24
2023-05-04T09:24:38.931Z,5.94
2023-05-04T09:25:38.944Z,6.09
2023-05-04T09:26:38.984Z,6.29
2023-05-04T09:27:39.012Z,6.43
2023-05-04T09:28:39.048Z,6.82
2023-05-04T09:29:39.051Z,7.10
2023-05-04T09:30:39.097Z,7.00
2023-05-04T09:31:39.243Z,7.52
2023-05-04T09:32:39.149Z,7.66
2023-05-04T09:33:39.152Z,7.94
2023-05-04T09:34:39.168Z,8.21
2023-05-04T09:35:39.248Z,8.58
2023-05-04T09:36:39.292Z,9.02
2023-05-04T09:37:39.674Z,9.44
2023-05-04T09:38:39.309Z,10.14
2023-05-04T09:39:39.362Z,10.30
2023-05-04T09:40:39.483Z,10.62
2023-05-04T09:41:39.453Z,10.86
2023-05-04T09:42:39.493Z,10.33
2023-05-04T09:43:39.649Z,7.27
2023-05-04T09:44:39.570Z,5.88
2023-05-04T09:45:39.610Z,5.28
2023-05-04T09:46:39.695Z,5.70
2023-05-04T09:47:39.769Z,6.63
2023-05-04T09:48:40.160Z,6.84
2023-05-04T09:49:39.840Z,7.54
2023-05-04T09:50:39.895Z,7.72
2023-05-04T09:51:39.957Z,7.64
2023-05-04T09:52:40.061Z,7.64
2023-05-04T09:53:40.116Z,7.68
2023-05-04T09:54:40.187Z,6.90
2023-05-04T09:55:40.268Z,7.08
2023-05-04T09:56:40.340Z,6.01
2023-05-04T09:57:40.423Z,4.41
2023-05-04T09:58:40.490Z,4.43
2023-05-04T09:59:40.582Z,4.23
2023-05-04T10:00:40.672Z,3.82
2023-05-04T10:01:42.249Z,3.81
2023-05-04T10:02:40.871Z,3.57
2023-05-04T10:03:40.813Z,3.40
2023-05-04T10:04:40.788Z,3.49
2023-05-04T10:05:40.880Z,2.89
2023-05-04T10:06:40.840Z,2.77
2023-05-04T10:07:41.638Z,2.52
2023-05-04T10:08:40.895Z,2.54
2023-05-04T10:09:40.936Z,2.58
2023-05-04T10:10:40.939Z,2.60
2023-05-04T10:11:40.991Z,3.12
2023-05-04T10:12:41.042Z,3.23
2023-05-04T10:13:41.042Z,3.16
2023-05-04T10:14:41.098Z,3.03
2023-05-04T10:15:41.128Z,3.07
2023-05-04T10:16:41.107Z,2.84
2023-05-04T10:17:41.224Z,2.78
2023-05-04T10:18:41.170Z,2.59
2023-05-04T10:19:41.171Z,2.55
2023-05-04T10:20:41.224Z,2.60
2023-05-04T10:21:41.284Z,2.76
2023-05-04T10:22:41.286Z,3.08
2023-05-04T10:23:41.324Z,3.02
2023-05-04T10:24:41.325Z,3.20
2023-05-04T10:25:41.367Z,3.37
2023-05-04T10:26:41.409Z,3.55
2023-05-04T10:27:41.456Z,3.85
2023-05-04T10:28:41.466Z,4.26
2023-05-04T10:29:41.476Z,4.44
2023-05-04T10:30:41.484Z,4.51
2023-05-04T10:31:41.604Z,4.59
2023-05-04T10:32:41.598Z,4.47
2023-05-04T10:33:41.613Z,4.39
2023-05-04T10:34:41.588Z,4.45
2023-05-04T10:35:41.643Z,4.58
2023-05-04T10:36:41.680Z,4.74
2023-05-04T10:37:41.701Z,4.58
2023-05-04T10:38:41.728Z,4.57
2023-05-04T10:39:41.742Z,4.62
2023-05-04T10:40:41.938Z,5.01
2023-05-04T10:41:41.848Z,5.18
2023-05-04T10:42:41.844Z,5.56
2023-05-04T10:43:41.862Z,5.03
2023-05-04T10:44:41.955Z,5.01
2023-05-04T10:45:42.091Z,4.19
2023-05-04T10:46:42.066Z,3.87
2023-05-04T10:47:42.136Z,4.03
2023-05-04T10:48:42.181Z,4.43
2023-05-04T10:49:42.272Z,4.48
2023-05-04T10:50:42.352Z,4.51
2023-05-04T10:51:48.951Z,4.56
2023-05-04T10:52:43.444Z,4.57
2023-05-04T10:53:42.449Z,4.64
2023-05-04T10:54:42.511Z,4.86
2023-05-04T10:55:42.486Z,5.14
2023-05-04T10:56:42.609Z,5.41
2023-05-04T10:57:42.544Z,4.76
2023-05-04T10:58:42.613Z,5.01
2023-05-04T10:59:42.637Z,4.65
2023-05-04T11:00:42.683Z,4.21
2023-05-04T11:01:42.732Z,4.16
2023-05-04T11:02:42.826Z,4.57
2023-05-04T11:03:42.818Z,4.63
2023-05-04T11:04:42.749Z,4.54
2023-05-04T11:05:42.754Z,4.49
2023-05-04T11:06:42.823Z,4.59
2023-05-04T11:07:42.845Z,4.63
2023-05-04T11:08:43.196Z,4.64
2023-05-04T11:09:42.868Z,4.70
2023-05-04T11:10:42.871Z,4.71
2023-05-04T11:11:42.913Z,4.79
2023-05-04T11:12:43.088Z,4.85
2023-05-04T11:13:43.032Z,4.89
2023-05-04T11:14:43.488Z,4.83
2023-05-04T11:15:43.142Z,4.69
2023-05-04T11:16:43.244Z,4.71
2023-05-04T11:17:43.313Z,4.70
2023-05-04T11:18:43.301Z,4.57
2023-05-04T11:19:43.407Z,4.59
2023-05-04T11:20:43.425Z,4.35
2023-05-04T11:21:43.516Z,4.51
2023-05-04T11:22:43.548Z,4.44
2023-05-04T11:23:43.600Z,4.58
2023-05-04T11:24:44.199Z,4.65
2023-05-04T11:25:43.698Z,4.56
2023-05-04T11:26:43.776Z,4.62
2023-05-04T11:27:43.812Z,4.62
2023-05-04T11:28:44.213Z,4.66
2023-05-04T11:29:43.947Z,4.67
2023-05-04T11:30:43.964Z,4.81
2023-05-04T11:31:44.084Z,4.82
2023-05-04T11:32:44.171Z,4.80
2023-05-04T11:33:44.176Z,4.72
2023-05-04T11:34:44.177Z,4.81
2023-05-04T11:35:44.205Z,4.73
2023-05-04T11:36:44.294Z,4.84
2023-05-04T11:37:44.324Z,4.86
2023-05-04T11:38:44.387Z,4.81
2023-05-04T11:39:44.406Z,4.88
2023-05-04T11:40:44.465Z,4.78
2023-05-04T11:41:44.494Z,4.77
2023-05-04T11:42:44.549Z,4.74
2023-05-04T11:43:44.613Z,4.46
2023-05-04T11:44:44.677Z,4.28
2023-05-04T11:45:44.686Z,4.37
2023-05-04T11:46:45.742Z,4.42
2023-05-04T11:47:44.827Z,4.44
2023-05-04T11:48:44.807Z,4.50
2023-05-04T11:49:44.836Z,4.49
2023-05-04T11:50:44.891Z,4.48
2023-05-04T11:51:44.927Z,4.45
2023-05-04T11:52:44.997Z,4.53
2023-05-04T11:53:45.022Z,4.46
2023-05-04T11:54:45.067Z,4.62
2023-05-04T11:55:45.095Z,4.56
2023-05-04T11:56:45.114Z,4.49
2023-05-04T11:57:45.201Z,4.52
2023-05-04T11:58:45.225Z,4.36
2023-05-04T11:59:45.248Z,4.44
2023-05-04T12:00:45.407Z,4.53
2023-05-04T12:01:45.363Z,4.58
2023-05-04T12:02:45.408Z,4.58
2023-05-04T12:03:53.891Z,4.36
2023-05-04T12:04:46.425Z,4.37
2023-05-04T12:05:46.261Z,4.39
2023-05-04T12:06:45.475Z,4.34
2023-05-04T12:07:45.489Z,4.09
2023-05-04T12:08:45.551Z,4.07
2023-05-04T12:09:45.495Z,4.07
2023-05-04T12:10:45.527Z,4.18
2023-05-04T12:11:45.569Z,4.33
2023-05-04T12:12:45.615Z,4.48
2023-05-04T12:13:45.735Z,4.49
2023-05-04T12:14:45.647Z,4.55
2023-05-04T12:15:45.621Z,4.49
2023-05-04T12:16:45.726Z,4.82
2023-05-04T12:17:45.681Z,5.09
2023-05-04T12:18:45.697Z,5.23
2023-05-04T12:19:45.710Z,5.27
2023-05-04T12:20:45.704Z,5.67
2023-05-04T12:21:45.741Z,5.39
2023-05-04T12:22:45.755Z,5.95
2023-05-04T12:23:46.232Z,6.00
2023-05-04T12:24:45.818Z,5.63
2023-05-04T12:25:57.436Z,5.81
2023-05-04T12:26:46.854Z,5.83
2023-05-04T12:27:45.881Z,5.91
2023-05-04T12:28:45.904Z,6.09
2023-05-04T12:29:46.226Z,6.42
2023-05-04T12:30:45.965Z,6.16
2023-05-04T12:31:45.960Z,6.15
2023-05-04T12:32:46.042Z,6.02
2023-05-04T12:33:45.969Z,5.91
2023-05-04T12:34:46.024Z,5.78
2023-05-04T12:35:46.040Z,5.55
2023-05-04T12:36:46.042Z,5.36
2023-05-04T12:37:46.069Z,5.23
2023-05-04T12:38:46.150Z,5.11
2023-05-04T12:39:46.087Z,5.05
2023-05-04T12:40:46.124Z,5.02
2023-05-04T12:41:46.128Z,4.83
2023-05-04T12:42:46.163Z,4.76
2023-05-04T12:43:46.162Z,4.65
2023-05-04T12:44:46.207Z,4.56
2023-05-04T12:45:46.195Z,4.42
2023-05-04T12:46:46.226Z,4.30
2023-05-04T12:47:46.257Z,4.07
2023-05-04T12:48:46.250Z,3.93
2023-05-04T12:49:46.266Z,3.79
2023-05-04T12:50:46.273Z,3.82
2023-05-04T12:51:46.298Z,3.78
2023-05-04T12:52:46.310Z,3.62
2023-05-04T12:53:46.333Z,3.55
2023-05-04T12:54:46.369Z,3.25
2023-05-04T12:55:46.368Z,3.32
2023-05-04T12:56:46.363Z,3.26
2023-05-04T12:57:46.437Z,3.09
2023-05-04T12:58:46.457Z,3.19
2023-05-04T12:59:46.467Z,3.14
2023-05-04T13:00:46.508Z,3.00
2023-05-04T13:01:46.612Z,3.02
2023-05-04T13:02:46.577Z,2.96
2023-05-04T13:03:46.661Z,3.03
2023-05-04T13:04:46.573Z,2.89
2023-05-04T13:05:46.627Z,2.85
2023-05-04T13:06:48.310Z,2.87
2023-05-04T13:07:46.640Z,2.81
2023-05-04T13:08:46.697Z,2.86
2023-05-04T13:09:46.718Z,2.73
2023-05-04T13:10:46.746Z,2.64
2023-05-04T13:11:46.758Z,2.68
2023-05-04T13:12:46.816Z,2.63
2023-05-04T13:13:46.842Z,2.60
2023-05-04T13:14:46.850Z,2.63
2023-05-04T13:15:46.934Z,2.66
2023-05-04T13:16:47.260Z,2.58
2023-05-04T13:17:46.948Z,2.61